createdAt,value
2023-01-19T00:00:21.012Z,13.77
2023-01-19T00:02:48.036Z,14.38
2023-01-19T00:05:14.928Z,13.35
2023-01-19T00:07:41.951Z,14.07
2023-01-19T00:10:10.098Z,14.63
2023-01-19T00:12:36.858Z,10.43
2023-01-19T00:17:30.424Z,15.02
2023-01-19T00:19:57.018Z,13.20
2023-01-19T00:22:23.730Z,15.15
2023-01-19T00:27:17.251Z,16.58
2023-01-19T00:29:43.874Z,14.80
2023-01-19T00:32:10.476Z,15.05
2023-01-19T00:34:39.468Z,13.77
2023-01-19T00:37:09.857Z,11.98
2023-01-19T00:39:36.567Z,12.63
2023-01-19T00:44:48.725Z,14.77
2023-01-19T00:47:15.348Z,13.77
2023-01-19T00:49:41.972Z,18.15
2023-01-19T00:52:08.632Z,12.68
2023-01-19T00:54:35.296Z,14.38
2023-01-19T00:57:03.352Z,13.90
2023-01-19T00:59:30.041Z,13.57
2023-01-19T01:04:23.535Z,13.02
2023-01-19T01:09:16.861Z,13.38
2023-01-19T01:14:11.631Z,13.55
2023-01-19T01:16:38.470Z,16.83
2023-01-19T01:19:05.107Z,13.55
2023-01-19T01:21:31.938Z,12.75
2023-01-19T01:23:58.594Z,12.98
2023-01-19T01:26:27.066Z,12.93
2023-01-19T01:28:54.439Z,15.43
2023-01-19T01:33:47.771Z,10.60
2023-01-19T01:38:41.577Z,12.70
2023-01-19T01:41:08.486Z,13.00
2023-01-19T01:43:45.765Z,15.02
2023-01-19T01:46:15.297Z,12.73
2023-01-19T01:48:46.453Z,13.75
2023-01-19T01:51:26.109Z,17.55
2023-01-19T01:54:06.876Z,12.82
2023-01-19T01:56:39.571Z,12.40
2023-01-19T01:59:10.726Z,14.77
2023-01-19T02:01:56.094Z,11.90
2023-01-19T02:04:23.730Z,12.30
2023-01-19T02:07:09.213Z,12.55
2023-01-19T02:09:56.067Z,10.27
2023-01-19T02:12:42.459Z,15.95
2023-01-19T02:15:18.162Z,13.02
2023-01-19T02:17:44.982Z,12.10
2023-01-19T02:20:12.439Z,16.85
2023-01-19T02:23:03.110Z,15.70
2023-01-19T02:25:30.111Z,14.30
2023-01-19T02:27:57.050Z,12.73
2023-01-19T02:30:24.148Z,12.70
2023-01-19T02:32:50.916Z,15.18
2023-01-19T02:37:44.949Z,12.98
2023-01-19T02:40:14.881Z,10.98
2023-01-19T02:42:49.685Z,12.13
2023-01-19T02:45:22.350Z,15.98
2023-01-19T02:47:51.704Z,12.32
2023-01-19T02:50:37.276Z,12.77
2023-01-19T02:53:12.731Z,14.50
2023-01-19T02:55:43.283Z,13.98
2023-01-19T02:58:23.110Z,15.85
2023-01-19T03:01:16.912Z,12.10
2023-01-19T03:03:51.158Z,13.60
2023-01-19T03:06:33.180Z,12.48
2023-01-19T03:09:11.171Z,12.07
2023-01-19T03:11:42.896Z,18.33
2023-01-19T03:14:15.731Z,19.30
2023-01-19T03:16:48.337Z,13.93
2023-01-19T03:19:28.565Z,14.75
2023-01-19T03:21:59.133Z,14.70
2023-01-19T03:24:30.777Z,14.65
2023-01-19T03:27:06.582Z,12.77
2023-01-19T03:29:34.926Z,14.23
2023-01-19T03:32:06.794Z,11.82
2023-01-19T03:34:34.697Z,12.32
2023-01-19T03:37:04.923Z,16.88
2023-01-19T03:39:31.960Z,19.25
2023-01-19T03:42:03.082Z,15.40
2023-01-19T03:44:32.210Z,14.40
2023-01-19T03:46:59.660Z,15.15
2023-01-19T03:49:26.720Z,18.63
2023-01-19T03:51:56.467Z,15.85
2023-01-19T03:54:23.389Z,14.52
2023-01-19T03:56:50.179Z,17.23
2023-01-19T03:59:17.576Z,17.75
2023-01-19T04:01:44.424Z,18.58
2023-01-19T04:04:11.275Z,13.55
2023-01-19T04:09:04.575Z,15.77
2023-01-19T04:11:31.524Z,17.02
2023-01-19T04:13:58.242Z,18.05
2023-01-19T04:18:52.558Z,13.95
2023-01-19T04:21:20.270Z,14.68
2023-01-19T04:23:47.060Z,17.20
2023-01-19T04:26:13.779Z,16.33
2023-01-19T04:31:07.716Z,15.88
2023-01-19T04:33:34.710Z,14.55
2023-01-19T04:36:01.994Z,19.65
2023-01-19T04:38:28.728Z,18.33
2023-01-19T04:40:55.655Z,17.98
2023-01-19T04:43:23.792Z,16.00
2023-01-19T04:45:51.298Z,13.23
2023-01-19T04:48:18.689Z,16.17
2023-01-19T04:50:45.542Z,15.50
2023-01-19T04:53:13.636Z,18.50
2023-01-19T04:55:40.494Z,16.63
2023-01-19T04:58:07.136Z,15.27
2023-01-19T05:03:01.665Z,16.50
2023-01-19T05:05:28.676Z,17.95
2023-01-19T05:07:55.554Z,14.68
2023-01-19T05:10:22.289Z,17.67
2023-01-19T05:12:49.495Z,19.30
2023-01-19T05:15:16.247Z,21.42
2023-01-19T05:17:42.948Z,13.63
2023-01-19T05:22:37.087Z,16.52
2023-01-19T05:25:03.934Z,15.40
2023-01-19T05:27:30.584Z,20.50
2023-01-19T05:29:57.196Z,17.67
2023-01-19T05:32:23.826Z,17.63
2023-01-19T05:37:17.255Z,13.55
2023-01-19T05:39:43.815Z,18.35
2023-01-19T05:42:10.476Z,16.05
2023-01-19T05:47:03.678Z,14.48
2023-01-19T05:49:30.420Z,15.40
2023-01-19T05:51:57.037Z,15.07
2023-01-19T05:54:23.773Z,21.15
2023-01-19T05:59:23.798Z,17.73
2023-01-19T06:01:51.844Z,17.77
2023-01-19T06:04:19.912Z,16.75
2023-01-19T06:06:50.478Z,16.98
2023-01-19T06:09:17.737Z,18.63
2023-01-19T06:11:45.164Z,13.52
2023-01-19T06:14:12.282Z,12.35
2023-01-19T06:16:39.638Z,16.85
2023-01-19T06:19:06.394Z,16.50
2023-01-19T06:24:01.163Z,15.10
2023-01-19T06:26:27.833Z,18.27
2023-01-19T06:31:21.218Z,18.20
2023-01-19T06:33:47.919Z,19.63
2023-01-19T06:36:14.546Z,18.05
2023-01-19T06:38:41.211Z,20.67
2023-01-19T06:41:07.911Z,14.80
2023-01-19T06:46:02.210Z,15.32
2023-01-19T06:48:29.240Z,15.07
2023-01-19T06:50:58.473Z,19.48
2023-01-19T06:53:27.699Z,17.88
2023-01-19T06:55:57.908Z,16.60
2023-01-19T06:58:25.153Z,17.58
2023-01-19T07:03:21.986Z,17.08
2023-01-19T07:05:52.925Z,12.60
2023-01-19T07:08:19.574Z,18.50
2023-01-19T07:13:37.465Z,14.73
2023-01-19T07:16:07.291Z,15.15
2023-01-19T07:18:34.377Z,16.73
2023-01-19T07:21:01.210Z,15.70
2023-01-19T07:23:30.251Z,17.23
2023-01-19T07:25:58.409Z,14.88
2023-01-19T07:28:25.167Z,17.02
2023-01-19T07:30:52.992Z,15.93
2023-01-19T07:33:19.684Z,18.70
2023-01-19T07:38:14.417Z,14.27
2023-01-19T07:40:41.147Z,15.25
2023-01-19T07:45:35.919Z,14.63
2023-01-19T07:48:02.572Z,16.55
2023-01-19T07:50:29.711Z,17.15
2023-01-19T07:52:56.749Z,15.20
2023-01-19T07:55:24.501Z,17.65
2023-01-19T07:57:51.777Z,16.52
2023-01-19T08:00:21.799Z,14.18
2023-01-19T08:02:51.106Z,17.30
2023-01-19T08:05:19.049Z,18.08
2023-01-19T08:07:46.330Z,14.45
2023-01-19T08:10:14.922Z,18.70
2023-01-19T08:12:42.419Z,15.73
2023-01-19T08:15:10.760Z,18.35
2023-01-19T08:17:37.676Z,15.80
2023-01-19T08:20:05.010Z,19.02
2023-01-19T08:22:31.619Z,16.80
2023-01-19T08:27:24.907Z,14.80
2023-01-19T08:29:51.564Z,20.38
2023-01-19T08:34:45.467Z,15.52
2023-01-19T08:37:12.716Z,15.48
2023-01-19T08:39:39.320Z,15.45
2023-01-19T08:42:05.929Z,14.93
2023-01-19T08:46:59.938Z,16.30
2023-01-19T08:49:26.620Z,15.10
2023-01-19T08:51:53.452Z,13.38
2023-01-19T08:56:48.287Z,14.75
2023-01-19T09:01:41.636Z,14.52
2023-01-19T09:04:08.662Z,17.85
2023-01-19T09:06:35.368Z,16.33
2023-01-19T09:11:28.805Z,15.98
2023-01-19T09:16:22.187Z,13.88
2023-01-19T09:18:48.931Z,13.90
2023-01-19T09:23:42.291Z,13.40
2023-01-19T09:26:09.903Z,19.45
2023-01-19T09:28:37.582Z,17.10
2023-01-19T09:31:06.635Z,13.57
2023-01-19T09:33:33.867Z,16.63
2023-01-19T09:36:01.956Z,15.13
2023-01-19T09:38:38.517Z,16.77
2023-01-19T09:41:16.170Z,17.10
2023-01-19T09:43:51.418Z,19.88
2023-01-19T09:46:29.928Z,14.60
2023-01-19T09:48:59.628Z,18.52
2023-01-19T09:51:38.971Z,16.75
2023-01-19T09:56:47.509Z,17.05
2023-01-19T09:59:25.844Z,19.42
2023-01-19T10:02:20.248Z,16.27
2023-01-19T10:05:06.209Z,19.60
2023-01-19T10:08:14.833Z,18.15
2023-01-19T10:10:45.868Z,14.88
2023-01-19T10:13:21.597Z,18.50
2023-01-19T10:15:54.016Z,16.90
2023-01-19T10:18:30.900Z,16.23
2023-01-19T10:21:22.606Z,17.58
2023-01-19T10:23:52.195Z,15.85
2023-01-19T10:26:24.415Z,15.63
2023-01-19T10:28:55.433Z,17.55
2023-01-19T10:31:24.192Z,15.45
2023-01-19T10:33:52.247Z,14.27
2023-01-19T10:36:22.080Z,13.68
2023-01-19T10:38:49.142Z,17.75
2023-01-19T10:41:25.995Z,14.38
2023-01-19T10:44:02.249Z,16.98
2023-01-19T10:46:38.559Z,15.13
2023-01-19T10:49:06.387Z,15.98
2023-01-19T10:51:33.309Z,20.90
2023-01-19T10:54:04.177Z,15.32
2023-01-19T10:56:34.842Z,15.55
2023-01-19T10:59:03.997Z,17.15
2023-01-19T11:01:31.109Z,15.15
2023-01-19T11:04:05.300Z,15.93
2023-01-19T11:06:33.770Z,17.25
2023-01-19T11:09:18.402Z,18.05
2023-01-19T11:11:52.947Z,18.15
2023-01-19T11:14:24.667Z,18.40
2023-01-19T11:16:56.750Z,16.95
2023-01-19T11:19:29.857Z,18.35
2023-01-19T11:22:24.720Z,15.50
2023-01-19T11:24:52.082Z,12.73
2023-01-19T11:27:20.716Z,15.95
2023-01-19T11:29:58.834Z,12.52
2023-01-19T11:32:27.880Z,13.15
2023-01-19T11:34:54.565Z,11.77
2023-01-19T11:37:21.131Z,10.45
2023-01-19T11:42:14.892Z,12.52
2023-01-19T11:45:06.679Z,10.77
2023-01-19T11:47:46.997Z,13.00
2023-01-19T11:50:33.080Z,10.48
2023-01-19T11:53:09.177Z,12.38
2023-01-19T11:55:49.784Z,10.13
2023-01-19T11:58:18.582Z,11.52
2023-01-19T12:01:02.687Z,10.93
2023-01-19T12:03:43.704Z,11.23
2023-01-19T12:06:15.344Z,9.50
2023-01-19T12:08:49.519Z,10.45
2023-01-19T12:11:32.129Z,8.07
2023-01-19T12:14:00.309Z,9.25
2023-01-19T12:16:30.158Z,5.97
2023-01-19T12:19:01.317Z,6.70
2023-01-19T12:21:28.408Z,7.60
2023-01-19T12:24:10.247Z,7.72
2023-01-19T12:26:37.543Z,8.18
2023-01-19T12:29:13.365Z,10.88
2023-01-19T12:31:42.713Z,9.23
2023-01-19T12:34:31.420Z,8.73
2023-01-19T12:37:03.901Z,10.93
2023-01-19T12:39:32.137Z,10.68
2023-01-19T12:42:15.090Z,9.75
2023-01-19T12:44:43.481Z,10.70
2023-01-19T12:47:16.023Z,8.38
2023-01-19T12:50:06.440Z,10.07
2023-01-19T12:52:51.159Z,9.32
2023-01-19T12:55:23.204Z,10.63
2023-01-19T12:57:55.965Z,9.60
2023-01-19T13:00:22.529Z,10.70
2023-01-19T13:05:33.219Z,11.90
2023-01-19T13:08:05.454Z,11.50
2023-01-19T13:11:00.040Z,14.07
2023-01-19T13:13:31.853Z,12.68
2023-01-19T13:16:18.503Z,11.15
2023-01-19T13:18:59.050Z,10.18
2023-01-19T13:21:41.531Z,12.60
2023-01-19T13:24:23.797Z,14.05
2023-01-19T13:26:50.391Z,9.32
2023-01-19T13:31:49.595Z,12.43
2023-01-19T13:34:22.481Z,11.57
2023-01-19T13:36:55.024Z,10.75
2023-01-19T13:39:37.754Z,12.55
2023-01-19T13:42:14.711Z,11.35
2023-01-19T13:44:51.264Z,11.00
2023-01-19T13:47:41.560Z,11.30
2023-01-19T13:50:20.636Z,13.20
2023-01-19T13:52:48.910Z,10.77
2023-01-19T13:55:16.746Z,10.55
2023-01-19T13:57:45.396Z,12.35
2023-01-19T14:00:12.312Z,10.75
2023-01-19T14:02:59.004Z,11.30
2023-01-19T14:05:38.367Z,10.93
2023-01-19T14:08:13.145Z,11.02
2023-01-19T14:10:45.927Z,12.90
2023-01-19T14:13:18.842Z,12.35
2023-01-19T14:18:19.308Z,9.70
2023-01-19T14:20:53.584Z,12.68
2023-01-19T14:23:59.208Z,13.13
2023-01-19T14:26:38.305Z,12.45
2023-01-19T14:29:18.613Z,13.25
2023-01-19T14:31:47.638Z,13.18
2023-01-19T14:34:41.559Z,13.48
2023-01-19T14:37:19.731Z,13.10
2023-01-19T14:39:49.397Z,11.82
2023-01-19T14:42:21.995Z,15.60
2023-01-19T14:44:53.982Z,15.10
2023-01-19T14:47:32.571Z,15.90
2023-01-19T14:50:07.365Z,13.75
2023-01-19T14:52:40.760Z,13.80
2023-01-19T14:55:20.849Z,17.17
2023-01-19T14:57:48.115Z,16.60
2023-01-19T15:00:19.622Z,18.00
2023-01-19T15:02:47.079Z,12.02
2023-01-19T15:05:14.287Z,14.98
2023-01-19T15:07:43.882Z,14.38
2023-01-19T15:10:21.257Z,11.05
2023-01-19T15:12:50.337Z,13.13
2023-01-19T15:15:32.253Z,12.98
2023-01-19T15:18:01.339Z,12.32
2023-01-19T15:20:28.372Z,13.38
2023-01-19T15:22:54.978Z,11.38
2023-01-19T15:25:26.109Z,10.27
2023-01-19T15:27:57.179Z,11.50
2023-01-19T15:30:30.996Z,11.02
2023-01-19T15:32:58.880Z,12.98
2023-01-19T15:35:28.490Z,11.95
2023-01-19T15:37:55.157Z,8.90
2023-01-19T15:40:23.185Z,12.68
2023-01-19T15:42:50.628Z,11.35
2023-01-19T15:45:32.729Z,12.85
2023-01-19T15:48:01.547Z,11.15
2023-01-19T15:50:28.186Z,11.77
2023-01-19T15:52:54.863Z,11.25
2023-01-19T15:55:21.651Z,12.13
2023-01-19T15:57:48.781Z,9.65
2023-01-19T16:00:16.150Z,10.55
2023-01-19T16:02:42.849Z,10.68
2023-01-19T16:05:10.212Z,14.15
2023-01-19T16:07:37.119Z,11.73
2023-01-19T16:10:06.216Z,12.68
2023-01-19T16:12:32.813Z,11.07
2023-01-19T16:14:59.399Z,13.05
2023-01-19T16:17:26.033Z,12.68
2023-01-19T16:19:52.655Z,11.52
2023-01-19T16:22:19.268Z,13.43
2023-01-19T16:27:12.566Z,12.05
2023-01-19T16:29:39.226Z,12.35
2023-01-19T16:32:06.046Z,13.88
2023-01-19T16:34:33.071Z,11.52
2023-01-19T16:36:59.797Z,15.40
2023-01-19T16:39:26.504Z,13.10
2023-01-19T16:41:53.103Z,10.77
2023-01-19T16:44:19.760Z,14.60
2023-01-19T16:46:49.547Z,14.68
2023-01-19T16:49:21.225Z,13.52
2023-01-19T16:51:48.965Z,14.13
2023-01-19T16:54:17.876Z,14.38
2023-01-19T16:56:44.640Z,13.70
2023-01-19T16:59:13.450Z,11.90
2023-01-19T17:01:43.134Z,15.63
2023-01-19T17:04:10.014Z,12.65
2023-01-19T17:06:36.735Z,13.57
2023-01-19T17:09:04.184Z,15.20
2023-01-19T17:11:32.337Z,15.00
2023-01-19T17:14:00.891Z,14.30
2023-01-19T17:16:29.226Z,13.98
2023-01-19T17:19:00.813Z,15.50
2023-01-19T17:21:27.928Z,16.98
2023-01-19T17:23:55.573Z,13.20
2023-01-19T17:26:25.109Z,13.77
2023-01-19T17:28:52.296Z,13.63
2023-01-19T17:31:21.606Z,14.82
2023-01-19T17:33:49.673Z,12.77
2023-01-19T17:36:22.130Z,16.38
2023-01-19T17:38:49.642Z,13.82
2023-01-19T17:41:21.760Z,17.17
2023-01-19T17:43:50.267Z,16.15
2023-01-19T17:46:17.494Z,17.85
2023-01-19T17:48:44.193Z,16.42
2023-01-19T17:51:12.934Z,16.58
2023-01-19T17:53:41.704Z,17.65
2023-01-19T17:56:11.184Z,12.80
2023-01-19T17:58:38.414Z,15.63
2023-01-19T18:01:20.068Z,15.07
2023-01-19T18:03:46.722Z,12.25
2023-01-19T18:06:13.816Z,12.95
2023-01-19T18:08:47.115Z,16.27
2023-01-19T18:11:15.214Z,15.55
2023-01-19T18:13:44.847Z,15.73
2023-01-19T18:16:14.943Z,15.63
2023-01-19T18:18:41.989Z,15.13
2023-01-19T18:21:12.622Z,20.15
2023-01-19T18:23:39.504Z,17.70
2023-01-19T18:26:12.170Z,18.75
2023-01-19T18:28:39.215Z,21.08
2023-01-19T18:31:15.040Z,26.63
2023-01-19T18:33:42.079Z,28.83
2023-01-19T18:36:09.429Z,35.33
2023-01-19T18:38:36.739Z,34.58
2023-01-19T18:41:05.813Z,36.95
2023-01-19T18:43:32.726Z,38.47
2023-01-19T18:45:59.515Z,31.70
2023-01-19T18:48:26.268Z,31.67
2023-01-19T18:50:53.581Z,32.03
2023-01-19T18:53:20.844Z,35.97
2023-01-19T18:55:57.269Z,39.97
2023-01-19T18:58:28.404Z,33.15
2023-01-19T19:00:57.278Z,27.85
2023-01-19T19:03:24.068Z,23.02
2023-01-19T19:05:50.863Z,26.00
2023-01-19T19:08:17.580Z,26.60
2023-01-19T19:10:44.539Z,24.65
2023-01-19T19:13:15.923Z,24.00
2023-01-19T19:15:44.275Z,24.42
2023-01-19T19:18:13.515Z,27.80
2023-01-19T19:20:41.881Z,26.13
2023-01-19T19:23:08.605Z,26.10
2023-01-19T19:25:37.894Z,29.73
2023-01-19T19:28:04.722Z,21.95
2023-01-19T19:30:34.195Z,25.00
2023-01-19T19:33:01.093Z,21.92
2023-01-19T19:35:27.913Z,22.92
2023-01-19T19:37:58.000Z,20.38
2023-01-19T19:40:26.536Z,19.55
2023-01-19T19:42:53.397Z,19.98
2023-01-19T19:47:46.799Z,17.42
2023-01-19T19:50:14.110Z,20.85
2023-01-19T19:52:42.151Z,18.73
2023-01-19T19:55:10.608Z,17.83
2023-01-19T19:57:37.540Z,19.98
2023-01-19T20:00:05.332Z,22.45
2023-01-19T20:02:32.409Z,16.50
2023-01-19T20:04:59.132Z,18.02
2023-01-19T20:07:28.211Z,22.75
2023-01-19T20:09:55.125Z,24.92
2023-01-19T20:12:21.925Z,26.23
2023-01-19T20:14:48.666Z,35.58
2023-01-19T20:17:15.393Z,26.13
2023-01-19T20:19:43.721Z,27.35
2023-01-19T20:22:10.456Z,25.13
2023-01-19T20:24:37.149Z,20.70
2023-01-19T20:27:04.067Z,20.70
2023-01-19T20:29:30.763Z,19.80
2023-01-19T20:31:57.691Z,22.60
2023-01-19T20:34:32.051Z,26.02
2023-01-19T20:37:00.576Z,22.90
2023-01-19T20:39:28.952Z,22.27
2023-01-19T20:41:55.740Z,28.52
2023-01-19T20:44:24.634Z,27.55
2023-01-19T20:46:52.900Z,35.10
2023-01-19T20:49:20.346Z,31.10
2023-01-19T20:51:47.827Z,29.65
2023-01-19T20:54:17.080Z,30.25
2023-01-19T20:56:43.907Z,36.88
2023-01-19T20:59:11.382Z,30.50
2023-01-19T21:01:39.281Z,33.22
2023-01-19T21:04:06.667Z,25.85
2023-01-19T21:06:33.739Z,28.92
2023-01-19T21:09:00.492Z,28.33
2023-01-19T21:11:27.597Z,27.83
2023-01-19T21:13:57.360Z,32.80
2023-01-19T21:16:26.363Z,32.15
2023-01-19T21:18:53.657Z,28.63
2023-01-19T21:21:29.778Z,27.23
2023-01-19T21:24:02.020Z,29.17
2023-01-19T21:26:33.707Z,27.85
2023-01-19T21:29:02.543Z,24.52
2023-01-19T21:31:29.882Z,28.77
2023-01-19T21:33:59.893Z,30.17
2023-01-19T21:36:27.012Z,29.70
2023-01-19T21:38:55.816Z,33.22
2023-01-19T21:41:22.596Z,30.60
2023-01-19T21:46:31.999Z,28.33
2023-01-19T21:49:01.126Z,28.02
2023-01-19T21:51:33.544Z,28.40
2023-01-19T21:54:01.456Z,29.83
2023-01-19T21:56:29.477Z,34.65
2023-01-19T21:58:57.169Z,33.42
2023-01-19T22:01:24.373Z,34.42
2023-01-19T22:03:55.702Z,36.00
2023-01-19T22:06:22.850Z,47.38
2023-01-19T22:08:49.683Z,41.50
2023-01-19T22:11:18.812Z,38.17
2023-01-19T22:13:45.574Z,34.53
2023-01-19T22:16:17.139Z,31.17
2023-01-19T22:18:46.445Z,26.58
2023-01-19T22:21:16.248Z,39.50
2023-01-19T22:23:43.840Z,32.50
2023-01-19T22:26:11.442Z,34.65
2023-01-19T22:28:38.453Z,34.17
2023-01-19T22:31:07.219Z,35.08
2023-01-19T22:33:34.022Z,33.00
2023-01-19T22:36:14.298Z,40.10
2023-01-19T22:38:41.271Z,36.10
2023-01-19T22:41:16.282Z,30.05
2023-01-19T22:43:43.894Z,37.20
2023-01-19T22:46:11.061Z,34.58
2023-01-19T22:48:37.892Z,38.95
2023-01-19T22:51:04.574Z,40.63
2023-01-19T22:53:31.723Z,25.40
2023-01-19T22:55:58.342Z,31.52
2023-01-19T23:00:51.612Z,28.63
2023-01-19T23:03:18.218Z,29.88
2023-01-19T23:08:11.446Z,27.95
2023-01-19T23:13:05.612Z,32.90
2023-01-19T23:17:59.413Z,26.58
2023-01-19T23:22:52.543Z,32.88
2023-01-19T23:27:45.726Z,30.95
2023-01-19T23:32:39.061Z,28.58
2023-01-19T23:37:32.416Z,19.67
2023-01-19T23:42:25.650Z,21.52
2023-01-19T23:44:52.408Z,28.83
2023-01-19T23:47:19.008Z,36.55
2023-01-19T23:49:45.615Z,24.40
2023-01-19T23:52:12.205Z,26.65
2023-01-19T23:54:38.768Z,27.77
2023-01-19T23:57:05.374Z,24.80
